Amunt
Inicio > meteoXarxa
Fes-te'n soci

METEOXARXA

Catí
Ubicació l′Avellà
Comarca l′Alt Maestrat
Altitud (msnm) 931
Posició geogràfica 40° 30' 19.00" N, 00° 0' 1.00" W
Model Davis Vantage Pro2
Presa de dades
Font de les dades Meteocatí
Estadístiques. Resum
Data Temperatura (ºC) Humitat (%) Pressió (hPa) Vent (km/h) Precipit. (mm)
Mínima Mitjana Màxima Mínima Mitjana Màxima Mínima Mitjana Màxima Predom. Mitjana Ràfega màxima Total Dies de pluja
Mínima Mitjana Màxima Mínima Mitjana Màxima
Últimes dades diàries
18-01-2017 -6,7     -2,8     1,1 38,0 58,0 78,0 1.017,0 1.020,0 1.023,0 42,0 0,0  
17-01-2017 -4,8     0,0     4,7 32,0 56,0 80,0 1.010,0 1.013,5 1.017,0 79,0 0,0  
16-01-2017 2,7     5,3     7,9 70,0 81,5 93,0 1.013,0 1.016,5 1.020,0 77,0 4,8  
15-01-2017 0,2     3,0     5,8 58,0 70,5 83,0 1.019,0 1.021,0 1.023,0 82,0 0,0  
14-01-2017 -0,2     2,0     4,1 50,0 65,0 80,0 1.018,0 1.021,0 1.024,0 87,0 0,0  
13-01-2017 0,7     5,7     10,7 53,0 69,0 85,0 1.011,0 1.015,5 1.020,0 92,0 0,0  
12-01-2017 7,6     12,3     17,0 48,0 66,0 84,0 1.014,0 1.018,5 1.023,0 53,0 0,0  
11-01-2017 3,8     6,8     9,7 77,0 80,5 84,0 1.011,0 1.017,0 1.023,0 72,0 0,0  
10-01-2017 3,8     5,5     7,1 65,0 76,5 88,0 1.009,0 1.014,0 1.019,0 98,0 1,2  
09-01-2017 2,3     7,1     11,9 54,0 67,5 81,0 1.019,0 1.023,0 1.027,0 53,0 0,0  
08-01-2017 2,6     7,0     11,3 29,0 48,5 68,0 1.024,0 1.026,5 1.029,0 42,0 0,0  
07-01-2017 0,8     6,2     11,6 35,0 58,0 81,0 1.027,0 1.028,5 1.030,0 22,0 0,0  
06-01-2017 0,8     5,6     10,4 30,0 58,5 87,0 1.024,0 1.026,5 1.029,0 21,0 0,0  
05-01-2017 4,8     8,3     11,9 32,0 48,5 65,0 1.017,0 1.020,5 1.024,0 77,0 0,0  
04-01-2017 6,7     9,4     12,2 36,0 56,5 77,0 1.020,0 1.021,0 1.022,0 64,0 0,0  
03-01-2017 8,1     10,8     13,5 32,0 47,0 62,0 1.020,0 1.021,5 1.023,0 42,0 0,0  
02-01-2017 0,4     4,7     9,0 59,0 75,5 92,0 1.020,0 1.021,5 1.023,0 18,0 0,2  
01-01-2017 1,6     5,7     9,8 59,0 75,0 91,0 1.021,0 1.025,0 1.029,0 24,0 0,2  
31-12-2016 2,7     6,3     9,9 64,0 77,0 90,0 1.029,0 1.031,0 1.033,0 32,0 0,0  
30-12-2016 1,4     6,3     11,3 42,0 65,5 89,0 1.032,0 1.033,0 1.034,0 19,0 0,0  
29-12-2016 5,4     11,9     18,4 11,0 33,0 55,0 1.031,0 1.032,5 1.034,0 18,0 0,0  
28-12-2016 5,4     9,7     13,9 29,0 44,0 59,0 1.033,0 1.035,0 1.037,0 21,0 0,0  
27-12-2016 4,6     9,8     14,9 44,0 60,0 76,0 1.029,0 1.031,5 1.034,0 21,0 0,0  
26-12-2016 7,6     12,7     17,7 22,0 38,0 54,0 1.028,0 1.029,0 1.030,0 18,0 0,0  
25-12-2016 5,7     11,4     17,1 39,0 64,0 89,0 1.030,0 1.033,0 1.036,0 39,0 0,0  
24-12-2016 6,6     9,1     11,5 72,0 80,0 88,0 1.034,0 1.035,5 1.037,0 40,0 0,0  
23-12-2016 6,8     9,1     11,4 74,0 82,5 91,0 1.034,0 1.034,5 1.035,0 43,0 0,0  
22-12-2016 4,3     7,8     11,3 62,0 76,5 91,0 1.030,0 1.032,0 1.034,0 35,0 0,0  
21-12-2016 2,4     5,8     9,2 68,0 78,5 89,0 1.020,0 1.025,0 1.030,0 55,0 0,0  
20-12-2016 2,7     5,3     8,0 71,0 81,5 92,0 1.014,0 1.017,0 1.020,0 61,0 0,0  
19-12-2016 1,4     2,8     4,1 91,0 94,0 97,0 1.013,0 1.018,0 1.023,0 48,0 4,2  
18-12-2016 2,9     3,9     4,9 94,0 95,5 97,0 1.023,0 1.028,0 1.033,0 34,0 2,8  
Dades del mes en curs (actualitzades fins l'últim dia disponible)
01/2017 -6,7 2,0 8,1 5,7 1,1 9,4 17,0 29,0 64,3 93,0 1.009,0 1.020,6 1.030,0   98,0 6,4  
Últimes dades mensuals
12/2016 1,4 5,0 8,2 8,2 4,1 11,3 18,4 33,0 78,3 97,5 1.014,0 1.026,4 1.035,5 61,0 72,8 12
11/2016 1,5 5,9 12,1 9,4 7,3 12,9 21,6 60,0 75,0 97,0 1.001,0 1.014,8 1.029,5 77,0 63,6 12
10/2016 5,6 10,8 14,7 14,8 10,9 18,7 25,2 58,5 78,3 95,5 1.000,5 1.016,1 1.028,5 43,0 36,4 15
09/2016 9,6 14,4 23,1 19,2 15,9 24,0 35,2 31,5 66,8 83,5 1.010,5 1.016,9 1.026,5 66,0 36,8 9
08/2016 9,9 15,4 18,1 21,4 21,9 27,3 30,8 50,5 65,1 82,0 1.009,0 1.016,9 1.022,0 61,0 13,0 8
07/2016 8,8 16,3 20,5 22,0 23,3 27,7 31,7 40,5 57,8 76,5 1.011,0 1.015,7 1.020,5 59,0 11,4 8
06/2016 8,5 13,3 18,9 18,9 18,7 24,4 30,5 43,5 61,1 80,0 1.001,0 1.014,4 1.023,0 84,0 23,8 8
05/2016 1,4 8,5 14,4 13,0 9,8 17,5 23,2 46,0 70,7 98,0 1.004,5 1.013,4 1.021,5 77,0 76,8 9
04/2016 1,4 5,8 10,4 9,9 8,1 14,1 21,8 52,5 70,7 95,5 1.005,5 1.012,3 1.018,5 88,0 64,6 13
03/2016 -0,5 3,4 9,1 7,2 4,2 11,1 18,7 53,5 70,6 97,0 1.001,5 1.013,4 1.023,0 101,0 54,2 10
02/2016 -3,7 3,5 9,8 7,6 4,4 11,7 18,3 42,5 66,2 93,5 990,0 1.016,3 1.034,0 93,0 22,0 7
01/2016 -0,9 4,6 10,7 8,3 3,9 12,0 17,6 52,0 70,9 88,0 1.002,5 1.019,2 1.031,5 80,0 6,4 9
12/2015 3,6 7,0 12,2 10,6 10,2 14,3 18,8 37,5 69,5 88,5 1.021,0 1.028,6 1.035,0 42,0 0,6 3
Dades de l'any en curs (actualitzades fins l'últim dia disponible)
2017 -6,7 2,0 8,1 5,7 1,1 9,4 17,0 29,0 64,3 93,0 1.009,0 1.020,6 1.030,0   98,0 6,4  
Últimes dades anuals